EGPC

Wick Airport

Wick, United Kingdom
METAR EGPC 221520Z 05009KT 9999 FEW022 SCT030 11/07 Q1027
Observed Flight Rules
May-22 @ 15:20 UTC (27 minutes ago) Visual Flight Rules
Wind Visibility Clouds
50° at 9 knots 10,000+ meters
  • Few at 2,200' AGL
  • Scattered at 3,000' AGL
Temperatures Readings
Current 11°C / 52°F
Dewpoint 7°C / 45°F
Humidity 77%
Altimeter 30.32" Hg
Pressure 1027 hPa
Elevation 39
METAR EGPC 221520Z 05009KT 9999 FEW022 SCT030 11/07 Q1027
Observed Flight Rules
May-22 @ 15:20 UTC
(27 minutes ago)
VFR
Wind Visibility
50° at 9 knots 10,000+ meters
Clouds
  • Few at 2,200' AGL
  • Scattered at 3,000' AGL
Temperature Dewpoint
11°C / 52°F 7°C / 45°F
Humidity Altimeter Pressure
77% 30.32" Hg 1027 hPa